sensor_id;sensor_type;location;lat;lon;timestamp;P1;durP1;ratioP1;P2;durP2;ratioP2
20739;SDS011;10530;49.968;19.844;2023-07-16T00:04:46;10.23;;;5.20;;
20739;SDS011;10530;49.968;19.844;2023-07-16T00:09:48;10.45;;;5.85;;
20739;SDS011;10530;49.968;19.844;2023-07-16T00:14:51;9.93;;;5.63;;
20739;SDS011;10530;49.968;19.844;2023-07-16T00:19:54;11.02;;;5.78;;
20739;SDS011;10530;49.968;19.844;2023-07-16T00:24:57;13.32;;;6.00;;
20739;SDS011;10530;49.968;19.844;2023-07-16T00:29:59;9.57;;;5.45;;
20739;SDS011;10530;49.968;19.844;2023-07-16T00:35:02;10.27;;;5.60;;
20739;SDS011;10530;49.968;19.844;2023-07-16T00:40:05;10.70;;;6.37;;
20739;SDS011;10530;49.968;19.844;2023-07-16T00:45:11;15.02;;;7.18;;
20739;SDS011;10530;49.968;19.844;2023-07-16T00:50:16;13.88;;;6.97;;
20739;SDS011;10530;49.968;19.844;2023-07-16T00:55:19;12.73;;;6.90;;
20739;SDS011;10530;49.968;19.844;2023-07-16T01:00:22;14.88;;;7.03;;
20739;SDS011;10530;49.968;19.844;2023-07-16T01:05:24;15.33;;;7.60;;
20739;SDS011;10530;49.968;19.844;2023-07-16T01:10:47;13.98;;;6.93;;
20739;SDS011;10530;49.968;19.844;2023-07-16T01:15:51;14.02;;;7.13;;
20739;SDS011;10530;49.968;19.844;2023-07-16T01:20:54;12.05;;;6.72;;
20739;SDS011;10530;49.968;19.844;2023-07-16T01:31:37;15.47;;;7.27;;
20739;SDS011;10530;49.968;19.844;2023-07-16T01:36:43;12.88;;;6.93;;
20739;SDS011;10530;49.968;19.844;2023-07-16T01:41:47;11.65;;;6.85;;
20739;SDS011;10530;49.968;19.844;2023-07-16T01:47:03;15.07;;;6.80;;
20739;SDS011;10530;49.968;19.844;2023-07-16T01:52:12;13.07;;;7.05;;
20739;SDS011;10530;49.968;19.844;2023-07-16T01:57:14;12.23;;;6.83;;
20739;SDS011;10530;49.968;19.844;2023-07-16T02:02:19;14.32;;;7.57;;
20739;SDS011;10530;49.968;19.844;2023-07-16T02:07:22;11.57;;;6.63;;
20739;SDS011;10530;49.968;19.844;2023-07-16T02:12:26;11.57;;;6.65;;
20739;SDS011;10530;49.968;19.844;2023-07-16T02:17:29;12.57;;;6.63;;
20739;SDS011;10530;49.968;19.844;2023-07-16T02:22:32;14.07;;;7.07;;
20739;SDS011;10530;49.968;19.844;2023-07-16T02:27:35;11.55;;;6.43;;
20739;SDS011;10530;49.968;19.844;2023-07-16T02:32:38;11.95;;;6.72;;
20739;SDS011;10530;49.968;19.844;2023-07-16T02:37:42;12.40;;;6.53;;
20739;SDS011;10530;49.968;19.844;2023-07-16T02:42:45;14.15;;;6.78;;
20739;SDS011;10530;49.968;19.844;2023-07-16T02:47:47;12.17;;;6.53;;
20739;SDS011;10530;49.968;19.844;2023-07-16T02:52:50;11.25;;;6.85;;
20739;SDS011;10530;49.968;19.844;2023-07-16T02:57:53;12.27;;;6.68;;
20739;SDS011;10530;49.968;19.844;2023-07-16T03:02:56;11.60;;;6.18;;
20739;SDS011;10530;49.968;19.844;2023-07-16T03:08:01;12.13;;;6.55;;
20739;SDS011;10530;49.968;19.844;2023-07-16T03:13:04;12.80;;;6.63;;
20739;SDS011;10530;49.968;19.844;2023-07-16T03:18:07;12.32;;;6.97;;
20739;SDS011;10530;49.968;19.844;2023-07-16T03:23:10;13.50;;;7.40;;
20739;SDS011;10530;49.968;19.844;2023-07-16T03:28:13;13.00;;;6.38;;
20739;SDS011;10530;49.968;19.844;2023-07-16T03:33:16;13.65;;;7.03;;
20739;SDS011;10530;49.968;19.844;2023-07-16T03:38:19;10.77;;;6.10;;
20739;SDS011;10530;49.968;19.844;2023-07-16T03:43:22;13.40;;;7.00;;
20739;SDS011;10530;49.968;19.844;2023-07-16T03:48:29;12.27;;;6.72;;
20739;SDS011;10530;49.968;19.844;2023-07-16T03:53:32;11.68;;;6.30;;
20739;SDS011;10530;49.968;19.844;2023-07-16T03:58:35;14.13;;;6.75;;
20739;SDS011;10530;49.968;19.844;2023-07-16T04:03:40;14.40;;;6.40;;
20739;SDS011;10530;49.968;19.844;2023-07-16T04:08:43;11.50;;;6.75;;
20739;SDS011;10530;49.968;19.844;2023-07-16T04:13:45;14.00;;;7.25;;
20739;SDS011;10530;49.968;19.844;2023-07-16T04:18:48;13.10;;;7.45;;
20739;SDS011;10530;49.968;19.844;2023-07-16T04:23:50;12.98;;;7.30;;
20739;SDS011;10530;49.968;19.844;2023-07-16T04:28:53;11.00;;;6.90;;
20739;SDS011;10530;49.968;19.844;2023-07-16T04:33:56;12.40;;;7.25;;
20739;SDS011;10530;49.968;19.844;2023-07-16T04:38:59;12.20;;;6.75;;
20739;SDS011;10530;49.968;19.844;2023-07-16T04:44:01;11.40;;;6.82;;
20739;SDS011;10530;49.968;19.844;2023-07-16T04:49:04;14.63;;;6.95;;
20739;SDS011;10530;49.968;19.844;2023-07-16T04:54:08;14.03;;;7.13;;
20739;SDS011;10530;49.968;19.844;2023-07-16T04:59:11;12.63;;;7.43;;
20739;SDS011;10530;49.968;19.844;2023-07-16T05:04:13;13.68;;;7.63;;
20739;SDS011;10530;49.968;19.844;2023-07-16T05:09:16;11.88;;;7.10;;
20739;SDS011;10530;49.968;19.844;2023-07-16T05:14:20;13.60;;;7.47;;
20739;SDS011;10530;49.968;19.844;2023-07-16T05:19:22;12.10;;;7.40;;
20739;SDS011;10530;49.968;19.844;2023-07-16T05:24:25;14.32;;;7.60;;
20739;SDS011;10530;49.968;19.844;2023-07-16T05:29:28;11.63;;;7.30;;
20739;SDS011;10530;49.968;19.844;2023-07-16T05:34:31;12.77;;;7.43;;
20739;SDS011;10530;49.968;19.844;2023-07-16T05:39:35;12.68;;;7.90;;
20739;SDS011;10530;49.968;19.844;2023-07-16T05:44:38;12.13;;;7.60;;
20739;SDS011;10530;49.968;19.844;2023-07-16T05:49:41;12.35;;;8.00;;
20739;SDS011;10530;49.968;19.844;2023-07-16T05:54:44;12.32;;;7.00;;
20739;SDS011;10530;49.968;19.844;2023-07-16T05:59:47;12.48;;;7.10;;
20739;SDS011;10530;49.968;19.844;2023-07-16T06:04:49;11.35;;;7.05;;
20739;SDS011;10530;49.968;19.844;2023-07-16T06:09:52;10.23;;;6.17;;
20739;SDS011;10530;49.968;19.844;2023-07-16T06:14:56;10.32;;;6.28;;
20739;SDS011;10530;49.968;19.844;2023-07-16T06:19:58;9.98;;;6.40;;
20739;SDS011;10530;49.968;19.844;2023-07-16T06:25:01;9.95;;;5.80;;
20739;SDS011;10530;49.968;19.844;2023-07-16T06:30:05;7.93;;;5.40;;
20739;SDS011;10530;49.968;19.844;2023-07-16T06:35:09;9.97;;;5.73;;
20739;SDS011;10530;49.968;19.844;2023-07-16T06:40:12;8.63;;;5.55;;
20739;SDS011;10530;49.968;19.844;2023-07-16T06:45:17;7.78;;;5.18;;
20739;SDS011;10530;49.968;19.844;2023-07-16T06:50:20;10.68;;;6.05;;
20739;SDS011;10530;49.968;19.844;2023-07-16T06:55:23;10.80;;;5.95;;
20739;SDS011;10530;49.968;19.844;2023-07-16T07:00:26;8.63;;;5.70;;
20739;SDS011;10530;49.968;19.844;2023-07-16T07:05:29;9.48;;;5.80;;
20739;SDS011;10530;49.968;19.844;2023-07-16T07:10:32;8.43;;;5.13;;
20739;SDS011;10530;49.968;19.844;2023-07-16T07:15:37;9.00;;;5.40;;
20739;SDS011;10530;49.968;19.844;2023-07-16T07:20:40;7.60;;;4.90;;
20739;SDS011;10530;49.968;19.844;2023-07-16T07:25:47;9.10;;;5.10;;
20739;SDS011;10530;49.968;19.844;2023-07-16T07:30:52;7.32;;;5.10;;
20739;SDS011;10530;49.968;19.844;2023-07-16T07:35:55;9.25;;;5.05;;
20739;SDS011;10530;49.968;19.844;2023-07-16T07:40:58;10.02;;;5.47;;
20739;SDS011;10530;49.968;19.844;2023-07-16T07:46:01;7.65;;;5.00;;
20739;SDS011;10530;49.968;19.844;2023-07-16T07:51:04;8.83;;;5.13;;
20739;SDS011;10530;49.968;19.844;2023-07-16T07:56:07;9.65;;;5.38;;
20739;SDS011;10530;49.968;19.844;2023-07-16T08:01:10;8.07;;;5.18;;
20739;SDS011;10530;49.968;19.844;2023-07-16T08:06:13;9.48;;;5.57;;
20739;SDS011;10530;49.968;19.844;2023-07-16T08:11:17;7.95;;;5.05;;
20739;SDS011;10530;49.968;19.844;2023-07-16T08:16:20;7.67;;;5.00;;
20739;SDS011;10530;49.968;19.844;2023-07-16T08:21:23;7.18;;;4.68;;
20739;SDS011;10530;49.968;19.844;2023-07-16T08:26:26;8.27;;;4.70;;
20739;SDS011;10530;49.968;19.844;2023-07-16T08:31:29;8.45;;;4.88;;
20739;SDS011;10530;49.968;19.844;2023-07-16T08:36:33;7.60;;;4.72;;
20739;SDS011;10530;49.968;19.844;2023-07-16T08:41:36;7.83;;;4.90;;
20739;SDS011;10530;49.968;19.844;2023-07-16T08:46:40;8.60;;;5.40;;
20739;SDS011;10530;49.968;19.844;2023-07-16T08:51:43;8.27;;;4.90;;
20739;SDS011;10530;49.968;19.844;2023-07-16T08:56:48;6.78;;;4.72;;
20739;SDS011;10530;49.968;19.844;2023-07-16T09:01:53;7.40;;;4.88;;
20739;SDS011;10530;49.968;19.844;2023-07-16T09:06:56;6.73;;;4.87;;
20739;SDS011;10530;49.968;19.844;2023-07-16T09:11:59;12.63;;;6.63;;
20739;SDS011;10530;49.968;19.844;2023-07-16T09:17:03;8.43;;;5.07;;
20739;SDS011;10530;49.968;19.844;2023-07-16T09:22:08;8.00;;;4.57;;
20739;SDS011;10530;49.968;19.844;2023-07-16T09:27:11;7.68;;;4.80;;
20739;SDS011;10530;49.968;19.844;2023-07-16T09:32:14;8.63;;;5.13;;
20739;SDS011;10530;49.968;19.844;2023-07-16T09:37:18;8.32;;;4.85;;
20739;SDS011;10530;49.968;19.844;2023-07-16T09:42:22;7.57;;;5.10;;
20739;SDS011;10530;49.968;19.844;2023-07-16T09:47:26;8.60;;;5.00;;
20739;SDS011;10530;49.968;19.844;2023-07-16T09:52:29;7.35;;;4.90;;
20739;SDS011;10530;49.968;19.844;2023-07-16T09:57:35;7.13;;;5.10;;
20739;SDS011;10530;49.968;19.844;2023-07-16T10:02:40;9.25;;;5.20;;
20739;SDS011;10530;49.968;19.844;2023-07-16T10:07:51;7.70;;;5.07;;
20739;SDS011;10530;49.968;19.844;2023-07-16T10:13:03;8.88;;;5.32;;
20739;SDS011;10530;49.968;19.844;2023-07-16T10:18:06;7.75;;;4.82;;
20739;SDS011;10530;49.968;19.844;2023-07-16T10:23:16;7.90;;;5.40;;
20739;SDS011;10530;49.968;19.844;2023-07-16T10:28:20;9.30;;;5.32;;
20739;SDS011;10530;49.968;19.844;2023-07-16T10:33:23;8.65;;;4.82;;
20739;SDS011;10530;49.968;19.844;2023-07-16T10:38:26;9.55;;;5.20;;
20739;SDS011;10530;49.968;19.844;2023-07-16T10:43:32;6.80;;;4.82;;
20739;SDS011;10530;49.968;19.844;2023-07-16T10:48:35;5.87;;;4.13;;
20739;SDS011;10530;49.968;19.844;2023-07-16T10:53:40;6.60;;;4.63;;
20739;SDS011;10530;49.968;19.844;2023-07-16T10:58:44;7.18;;;4.60;;
20739;SDS011;10530;49.968;19.844;2023-07-16T11:03:47;7.78;;;4.80;;
20739;SDS011;10530;49.968;19.844;2023-07-16T11:08:50;6.18;;;4.20;;
20739;SDS011;10530;49.968;19.844;2023-07-16T11:13:53;6.80;;;4.13;;
20739;SDS011;10530;49.968;19.844;2023-07-16T11:18:56;7.05;;;4.32;;
20739;SDS011;10530;49.968;19.844;2023-07-16T11:24:14;7.57;;;4.35;;
20739;SDS011;10530;49.968;19.844;2023-07-16T11:29:17;6.15;;;4.20;;
20739;SDS011;10530;49.968;19.844;2023-07-16T11:34:20;6.93;;;4.13;;
20739;SDS011;10530;49.968;19.844;2023-07-16T11:39:24;6.27;;;4.27;;
20739;SDS011;10530;49.968;19.844;2023-07-16T11:44:34;6.97;;;4.25;;
20739;SDS011;10530;49.968;19.844;2023-07-16T11:49:37;10.88;;;4.93;;
20739;SDS011;10530;49.968;19.844;2023-07-16T11:54:40;7.68;;;5.03;;
20739;SDS011;10530;49.968;19.844;2023-07-16T11:59:44;6.25;;;4.70;;
20739;SDS011;10530;49.968;19.844;2023-07-16T12:04:48;7.40;;;5.20;;
20739;SDS011;10530;49.968;19.844;2023-07-16T12:09:51;9.18;;;4.80;;
20739;SDS011;10530;49.968;19.844;2023-07-16T12:14:54;7.30;;;4.85;;
20739;SDS011;10530;49.968;19.844;2023-07-16T12:19:57;7.53;;;5.90;;
20739;SDS011;10530;49.968;19.844;2023-07-16T12:25:00;8.25;;;5.45;;
20739;SDS011;10530;49.968;19.844;2023-07-16T12:30:04;8.13;;;5.87;;
20739;SDS011;10530;49.968;19.844;2023-07-16T12:35:08;7.78;;;6.30;;
20739;SDS011;10530;49.968;19.844;2023-07-16T12:40:11;8.63;;;6.53;;
20739;SDS011;10530;49.968;19.844;2023-07-16T12:45:14;8.77;;;7.00;;
20739;SDS011;10530;49.968;19.844;2023-07-16T12:50:17;9.07;;;7.10;;
20739;SDS011;10530;49.968;19.844;2023-07-16T12:55:20;8.87;;;7.30;;
20739;SDS011;10530;49.968;19.844;2023-07-16T13:00:23;9.10;;;7.03;;
20739;SDS011;10530;49.968;19.844;2023-07-16T13:05:27;8.70;;;7.15;;
20739;SDS011;10530;49.968;19.844;2023-07-16T13:10:30;11.77;;;7.47;;
20739;SDS011;10530;49.968;19.844;2023-07-16T13:15:33;9.27;;;7.50;;
20739;SDS011;10530;49.968;19.844;2023-07-16T13:20:36;9.97;;;7.87;;
20739;SDS011;10530;49.968;19.844;2023-07-16T13:25:39;10.95;;;7.45;;
20739;SDS011;10530;49.968;19.844;2023-07-16T13:30:43;8.80;;;7.28;;
20739;SDS011;10530;49.968;19.844;2023-07-16T13:35:46;9.63;;;7.70;;
20739;SDS011;10530;49.968;19.844;2023-07-16T13:40:48;10.35;;;7.88;;
20739;SDS011;10530;49.968;19.844;2023-07-16T13:45:51;9.73;;;7.90;;
20739;SDS011;10530;49.968;19.844;2023-07-16T13:50:54;12.23;;;8.27;;
20739;SDS011;10530;49.968;19.844;2023-07-16T13:55:57;10.98;;;8.50;;
20739;SDS011;10530;49.968;19.844;2023-07-16T14:01:00;9.77;;;7.78;;
20739;SDS011;10530;49.968;19.844;2023-07-16T14:06:03;9.00;;;7.85;;
20739;SDS011;10530;49.968;19.844;2023-07-16T14:11:06;10.70;;;8.10;;
20739;SDS011;10530;49.968;19.844;2023-07-16T14:16:08;12.63;;;8.93;;
20739;SDS011;10530;49.968;19.844;2023-07-16T14:21:12;12.90;;;9.48;;
20739;SDS011;10530;49.968;19.844;2023-07-16T14:26:15;9.68;;;8.68;;
20739;SDS011;10530;49.968;19.844;2023-07-16T14:31:18;11.82;;;9.55;;
20739;SDS011;10530;49.968;19.844;2023-07-16T14:36:21;12.10;;;9.10;;
20739;SDS011;10530;49.968;19.844;2023-07-16T14:41:24;12.98;;;9.98;;
20739;SDS011;10530;49.968;19.844;2023-07-16T14:46:27;12.05;;;9.73;;
20739;SDS011;10530;49.968;19.844;2023-07-16T14:51:30;11.32;;;9.60;;
20739;SDS011;10530;49.968;19.844;2023-07-16T14:56:33;14.48;;;10.18;;
20739;SDS011;10530;49.968;19.844;2023-07-16T15:01:37;12.60;;;10.10;;
20739;SDS011;10530;49.968;19.844;2023-07-16T15:06:41;13.98;;;9.95;;
20739;SDS011;10530;49.968;19.844;2023-07-16T15:11:44;11.98;;;9.48;;
20739;SDS011;10530;49.968;19.844;2023-07-16T15:16:47;11.32;;;8.15;;
20739;SDS011;10530;49.968;19.844;2023-07-16T15:21:50;10.38;;;8.52;;
20739;SDS011;10530;49.968;19.844;2023-07-16T15:26:53;14.40;;;10.60;;
20739;SDS011;10530;49.968;19.844;2023-07-16T15:31:55;13.10;;;11.23;;
20739;SDS011;10530;49.968;19.844;2023-07-16T15:37:00;13.32;;;11.15;;
20739;SDS011;10530;49.968;19.844;2023-07-16T15:42:03;13.60;;;11.13;;
20739;SDS011;10530;49.968;19.844;2023-07-16T15:47:06;13.80;;;10.98;;
20739;SDS011;10530;49.968;19.844;2023-07-16T15:52:10;15.80;;;11.47;;
20739;SDS011;10530;49.968;19.844;2023-07-16T15:57:13;15.55;;;12.10;;
20739;SDS011;10530;49.968;19.844;2023-07-16T16:02:16;15.05;;;11.90;;
20739;SDS011;10530;49.968;19.844;2023-07-16T16:07:19;17.13;;;12.68;;
20739;SDS011;10530;49.968;19.844;2023-07-16T16:12:22;18.58;;;13.23;;
20739;SDS011;10530;49.968;19.844;2023-07-16T16:17:25;18.53;;;13.40;;
20739;SDS011;10530;49.968;19.844;2023-07-16T16:22:28;16.45;;;13.10;;
20739;SDS011;10530;49.968;19.844;2023-07-16T16:27:31;16.60;;;13.27;;
20739;SDS011;10530;49.968;19.844;2023-07-16T16:32:34;19.08;;;13.23;;
20739;SDS011;10530;49.968;19.844;2023-07-16T16:37:37;18.88;;;13.82;;
20739;SDS011;10530;49.968;19.844;2023-07-16T16:42:43;19.73;;;13.57;;
20739;SDS011;10530;49.968;19.844;2023-07-16T16:47:46;20.05;;;13.80;;
20739;SDS011;10530;49.968;19.844;2023-07-16T16:52:49;20.45;;;14.85;;
20739;SDS011;10530;49.968;19.844;2023-07-16T16:57:53;18.65;;;13.57;;
20739;SDS011;10530;49.968;19.844;2023-07-16T17:02:56;17.88;;;13.52;;
20739;SDS011;10530;49.968;19.844;2023-07-16T17:07:59;18.20;;;14.07;;
20739;SDS011;10530;49.968;19.844;2023-07-16T17:13:03;17.05;;;13.32;;
20739;SDS011;10530;49.968;19.844;2023-07-16T17:18:06;15.98;;;13.05;;
20739;SDS011;10530;49.968;19.844;2023-07-16T17:23:11;19.02;;;13.90;;
20739;SDS011;10530;49.968;19.844;2023-07-16T17:28:15;19.75;;;14.23;;
20739;SDS011;10530;49.968;19.844;2023-07-16T17:33:18;20.53;;;14.40;;
20739;SDS011;10530;49.968;19.844;2023-07-16T17:38:25;20.70;;;14.43;;
20739;SDS011;10530;49.968;19.844;2023-07-16T17:43:28;20.98;;;14.57;;
20739;SDS011;10530;49.968;19.844;2023-07-16T17:48:33;19.75;;;14.93;;
20739;SDS011;10530;49.968;19.844;2023-07-16T17:53:42;20.08;;;15.13;;
20739;SDS011;10530;49.968;19.844;2023-07-16T17:58:44;18.47;;;14.40;;
20739;SDS011;10530;49.968;19.844;2023-07-16T18:03:50;22.65;;;15.23;;
20739;SDS011;10530;49.968;19.844;2023-07-16T18:08:53;28.00;;;15.57;;
20739;SDS011;10530;49.968;19.844;2023-07-16T18:13:56;20.83;;;15.10;;
20739;SDS011;10530;49.968;19.844;2023-07-16T18:18:59;23.75;;;15.40;;
20739;SDS011;10530;49.968;19.844;2023-07-16T18:24:02;21.83;;;14.67;;
20739;SDS011;10530;49.968;19.844;2023-07-16T18:29:06;21.00;;;15.35;;
20739;SDS011;10530;49.968;19.844;2023-07-16T18:34:08;20.08;;;14.80;;
20739;SDS011;10530;49.968;19.844;2023-07-16T18:39:12;21.17;;;15.38;;
20739;SDS011;10530;49.968;19.844;2023-07-16T18:44:15;21.40;;;15.00;;
20739;SDS011;10530;49.968;19.844;2023-07-16T18:49:18;19.43;;;13.77;;
20739;SDS011;10530;49.968;19.844;2023-07-16T18:54:20;17.23;;;13.25;;
20739;SDS011;10530;49.968;19.844;2023-07-16T18:59:24;20.75;;;14.00;;
20739;SDS011;10530;49.968;19.844;2023-07-16T19:04:27;18.02;;;13.20;;
20739;SDS011;10530;49.968;19.844;2023-07-16T19:09:30;19.42;;;13.90;;
20739;SDS011;10530;49.968;19.844;2023-07-16T19:14:33;19.60;;;14.20;;
20739;SDS011;10530;49.968;19.844;2023-07-16T19:19:36;19.70;;;14.73;;
20739;SDS011;10530;49.968;19.844;2023-07-16T19:24:40;21.15;;;14.82;;
20739;SDS011;10530;49.968;19.844;2023-07-16T19:29:42;19.85;;;14.40;;
20739;SDS011;10530;49.968;19.844;2023-07-16T19:34:46;20.95;;;15.25;;
20739;SDS011;10530;49.968;19.844;2023-07-16T19:39:51;20.50;;;14.70;;
20739;SDS011;10530;49.968;19.844;2023-07-16T19:44:54;22.77;;;15.40;;
20739;SDS011;10530;49.968;19.844;2023-07-16T19:49:58;23.92;;;15.65;;
20739;SDS011;10530;49.968;19.844;2023-07-16T19:55:01;21.52;;;14.90;;
20739;SDS011;10530;49.968;19.844;2023-07-16T20:00:07;24.27;;;16.65;;
20739;SDS011;10530;49.968;19.844;2023-07-16T20:05:16;23.40;;;15.77;;
20739;SDS011;10530;49.968;19.844;2023-07-16T20:10:19;25.83;;;16.13;;
20739;SDS011;10530;49.968;19.844;2023-07-16T20:15:23;23.63;;;16.02;;
20739;SDS011;10530;49.968;19.844;2023-07-16T20:20:26;23.77;;;15.15;;
20739;SDS011;10530;49.968;19.844;2023-07-16T20:25:30;23.02;;;15.65;;
20739;SDS011;10530;49.968;19.844;2023-07-16T20:30:33;24.90;;;15.87;;
20739;SDS011;10530;49.968;19.844;2023-07-16T20:35:36;23.13;;;15.65;;
20739;SDS011;10530;49.968;19.844;2023-07-16T20:40:39;22.27;;;14.88;;
20739;SDS011;10530;49.968;19.844;2023-07-16T20:45:42;23.20;;;15.55;;
20739;SDS011;10530;49.968;19.844;2023-07-16T20:50:47;22.25;;;15.82;;
20739;SDS011;10530;49.968;19.844;2023-07-16T20:55:50;24.13;;;16.10;;
20739;SDS011;10530;49.968;19.844;2023-07-16T21:00:53;25.27;;;15.85;;
20739;SDS011;10530;49.968;19.844;2023-07-16T21:05:56;22.48;;;15.23;;
20739;SDS011;10530;49.968;19.844;2023-07-16T21:10:59;23.08;;;15.77;;
20739;SDS011;10530;49.968;19.844;2023-07-16T21:16:02;23.38;;;16.17;;
20739;SDS011;10530;49.968;19.844;2023-07-16T21:21:05;23.80;;;15.47;;
20739;SDS011;10530;49.968;19.844;2023-07-16T21:26:08;25.52;;;16.10;;
20739;SDS011;10530;49.968;19.844;2023-07-16T21:31:12;24.50;;;16.05;;
20739;SDS011;10530;49.968;19.844;2023-07-16T21:36:15;23.40;;;15.60;;
20739;SDS011;10530;49.968;19.844;2023-07-16T21:41:18;22.25;;;15.85;;
20739;SDS011;10530;49.968;19.844;2023-07-16T21:46:21;26.27;;;16.87;;
20739;SDS011;10530;49.968;19.844;2023-07-16T21:51:24;24.02;;;16.02;;
20739;SDS011;10530;49.968;19.844;2023-07-16T21:56:28;26.73;;;16.33;;
20739;SDS011;10530;49.968;19.844;2023-07-16T22:01:31;27.38;;;16.13;;
20739;SDS011;10530;49.968;19.844;2023-07-16T22:06:34;23.33;;;15.70;;
20739;SDS011;10530;49.968;19.844;2023-07-16T22:11:37;25.43;;;16.00;;
20739;SDS011;10530;49.968;19.844;2023-07-16T22:16:40;24.95;;;16.00;;
20739;SDS011;10530;49.968;19.844;2023-07-16T22:21:43;27.13;;;16.55;;
20739;SDS011;10530;49.968;19.844;2023-07-16T22:26:47;24.73;;;15.95;;
20739;SDS011;10530;49.968;19.844;2023-07-16T22:31:50;26.95;;;16.10;;
20739;SDS011;10530;49.968;19.844;2023-07-16T22:36:53;25.27;;;15.70;;
20739;SDS011;10530;49.968;19.844;2023-07-16T22:41:55;24.95;;;15.05;;
20739;SDS011;10530;49.968;19.844;2023-07-16T22:46:58;25.42;;;14.90;;
20739;SDS011;10530;49.968;19.844;2023-07-16T22:52:01;24.33;;;15.48;;
20739;SDS011;10530;49.968;19.844;2023-07-16T22:57:05;24.63;;;14.68;;
20739;SDS011;10530;49.968;19.844;2023-07-16T23:02:08;25.37;;;15.00;;
20739;SDS011;10530;49.968;19.844;2023-07-16T23:07:11;26.75;;;15.38;;
20739;SDS011;10530;49.968;19.844;2023-07-16T23:12:14;25.70;;;15.25;;
20739;SDS011;10530;49.968;19.844;2023-07-16T23:17:17;25.73;;;15.25;;
20739;SDS011;10530;49.968;19.844;2023-07-16T23:22:19;25.75;;;15.40;;
20739;SDS011;10530;49.968;19.844;2023-07-16T23:27:23;24.47;;;14.93;;
20739;SDS011;10530;49.968;19.844;2023-07-16T23:32:25;21.98;;;14.20;;
20739;SDS011;10530;49.968;19.844;2023-07-16T23:37:28;22.67;;;14.40;;
20739;SDS011;10530;49.968;19.844;2023-07-16T23:42:31;25.02;;;15.35;;
20739;SDS011;10530;49.968;19.844;2023-07-16T23:47:34;25.50;;;14.23;;
20739;SDS011;10530;49.968;19.844;2023-07-16T23:52:36;25.37;;;15.33;;
20739;SDS011;10530;49.968;19.844;2023-07-16T23:57:39;25.15;;;14.88;;
